Time;durP1;ratioP1;P1;durP2;ratioP2;P2;SDS_P1;SDS_P2;PMS_P1;PMS_P2;Temp;Humidity;BMP_temperature;BMP_pressure;BME280_temperature;BME280_humidity;BME280_pressure;Samples;Min_cycle;Max_cycle;Signal;HPM_P1;HPM_P2
2022/04/08 00:01:41;;;;;;;5.20;1.42;;;;;;;7.94;64.98;97723.08;2177342;81;29549;-66
2022/04/08 00:04:44;;;;;;;5.95;1.40;;;;;;;7.93;64.64;97720.05;2178206;81;31810;-67
2022/04/08 00:07:46;;;;;;;9.08;2.00;;;;;;;7.95;64.38;97730.11;2147599;82;34360;-65
2022/04/08 00:10:48;;;;;;;5.25;1.12;;;;;;;7.94;64.01;97725.74;2147159;81;29792;-65
2022/04/08 00:13:52;;;;;;;2.72;1.17;;;;;;;7.93;63.35;97730.71;2145580;83;27689;-66
2022/04/08 00:16:54;;;;;;;3.87;1.12;;;;;;;7.93;63.32;97727.58;2149464;82;29082;-66
2022/04/08 00:19:56;;;;;;;8.73;1.87;;;;;;;7.92;63.39;97729.87;2150013;82;31356;-65
2022/04/08 00:22:58;;;;;;;5.65;1.20;;;;;;;7.91;63.33;97731.68;2149609;82;32999;-65
2022/04/08 00:26:00;;;;;;;5.30;1.35;;;;;;;7.89;63.17;97740.78;2156121;81;29368;-66
2022/04/08 00:29:02;;;;;;;7.45;1.45;;;;;;;7.88;63.21;97743.08;2162397;81;27674;-67
2022/04/08 00:32:05;;;;;;;9.10;1.87;;;;;;;7.85;63.36;97737.99;2188128;81;28853;-65
2022/04/08 00:35:09;;;;;;;4.35;1.02;;;;;;;7.83;63.09;97726.59;2180509;81;31870;-66
2022/04/08 00:38:10;;;;;;;6.90;1.60;;;;;;;7.81;63.10;97736.53;2149824;82;33025;-66
2022/04/08 00:41:14;;;;;;;4.90;1.17;;;;;;;7.79;63.02;97741.13;2149584;82;30554;-66
2022/04/08 00:44:16;;;;;;;7.87;1.20;;;;;;;7.78;63.08;97740.80;2153154;81;28140;-66
2022/04/08 00:47:18;;;;;;;9.45;1.77;;;;;;;7.78;62.93;97742.13;2187675;81;29555;-67
2022/04/08 00:50:22;;;;;;;6.78;1.42;;;;;;;7.77;63.03;97737.27;2157405;81;31038;-65
2022/04/08 00:53:24;;;;;;;6.42;2.00;;;;;;;7.76;62.98;97742.23;2148511;82;33794;-66
2022/04/08 00:56:32;;;;;;;4.55;1.40;;;;;;;7.74;63.09;97743.70;2148757;82;29379;-66
2022/04/08 00:59:33;;;;;;;4.58;1.30;;;;;;;7.72;62.94;97736.31;2150256;82;28106;-65
2022/04/08 01:02:36;;;;;;;2.77;0.90;;;;;;;7.70;62.96;97739.58;2150138;82;28124;-65
2022/04/08 01:05:38;;;;;;;5.78;1.80;;;;;;;7.66;63.02;97754.11;2142959;82;30788;-65
2022/04/08 01:08:40;;;;;;;5.70;1.20;;;;;;;7.65;62.95;97736.92;2138572;83;33961;-66
2022/04/08 01:11:43;;;;;;;5.58;1.30;;;;;;;7.62;62.90;97737.98;2138447;83;29322;-65
2022/04/08 01:14:46;;;;;;;3.72;1.22;;;;;;;7.58;62.91;97737.89;2136809;83;27648;-65
2022/04/08 01:17:49;;;;;;;3.25;1.22;;;;;;;7.55;62.87;97743.45;2136195;83;29872;-66
2022/04/08 01:20:52;;;;;;;3.52;1.25;;;;;;;7.52;62.97;97741.03;2136564;83;31083;-65
2022/04/08 01:23:56;;;;;;;3.47;0.95;;;;;;;7.48;62.90;97737.77;2136801;83;33800;-65
2022/04/08 01:26:58;;;;;;;4.50;1.02;;;;;;;7.43;62.81;97746.13;2138728;83;29331;-66
2022/04/08 01:30:00;;;;;;;7.47;1.72;;;;;;;7.40;62.96;97749.02;2158900;82;27692;-65
2022/04/08 01:33:02;;;;;;;5.60;1.62;;;;;;;7.34;62.87;97740.16;2159544;82;29879;-65
2022/04/08 01:36:04;;;;;;;5.65;1.27;;;;;;;7.27;62.91;97739.80;2137906;83;31877;-66
2022/04/08 01:39:07;;;;;;;4.12;1.37;;;;;;;7.21;62.95;97738.09;2137749;83;32971;-65
2022/04/08 01:42:09;;;;;;;4.28;1.30;;;;;;;7.14;62.81;97741.22;2136371;83;29401;-66
2022/04/08 01:45:11;;;;;;;3.77;1.20;;;;;;;7.08;62.90;97740.84;2137298;83;27717;-65
2022/04/08 01:48:13;;;;;;;4.22;1.20;;;;;;;7.03;62.86;97751.02;2137814;83;29017;-65
2022/04/08 01:51:15;;;;;;;7.08;1.37;;;;;;;6.96;62.84;97756.80;2137358;83;31387;-65
2022/04/08 01:54:16;;;;;;;7.70;1.62;;;;;;;6.92;62.87;97767.80;2135138;83;33029;-66
2022/04/08 01:57:22;;;;;;;3.45;1.17;;;;;;;6.82;62.95;97769.80;2137241;83;29324;-66
2022/04/08 02:00:22;;;;;;;5.40;1.45;;;;;;;6.74;63.10;97784.65;2137880;82;27606;-65
2022/04/08 02:03:25;;;;;;;4.83;1.17;;;;;;;6.66;63.14;97785.22;2137313;83;29616;-66
2022/04/08 02:06:27;;;;;;;3.80;1.20;;;;;;;6.58;63.12;97778.31;2175946;81;31806;-66
2022/04/08 02:09:30;;;;;;;3.92;1.37;;;;;;;6.50;63.14;97789.52;2170312;81;33582;-66
2022/04/08 02:12:32;;;;;;;7.00;1.57;;;;;;;6.44;63.14;97785.97;2152163;82;28940;-66
2022/04/08 02:15:35;;;;;;;6.62;1.42;;;;;;;6.41;63.14;97784.39;2153639;82;27710;-66
2022/04/08 02:18:37;;;;;;;5.05;1.77;;;;;;;6.37;63.07;97789.55;2152488;82;28636;-65
2022/04/08 02:21:39;;;;;;;5.17;1.50;;;;;;;6.31;63.11;97797.97;2153396;82;31698;-66
2022/04/08 02:24:41;;;;;;;3.85;1.10;;;;;;;6.28;62.98;97805.70;2160429;81;33391;-66
2022/04/08 02:27:43;;;;;;;7.83;2.05;;;;;;;6.24;62.92;97801.55;2184768;81;30513;-66
2022/04/08 02:30:45;;;;;;;7.22;1.60;;;;;;;6.23;63.02;97814.48;2156019;81;27645;-66
2022/04/08 02:33:47;;;;;;;6.72;1.55;;;;;;;6.21;62.90;97813.73;2172229;81;29838;-66
2022/04/08 02:36:50;;;;;;;5.85;1.92;;;;;;;6.20;62.92;97820.04;2177310;81;30796;-66
2022/04/08 02:39:52;;;;;;;4.95;1.50;;;;;;;6.19;62.84;97815.68;2152436;82;33855;-66
2022/04/08 02:42:53;;;;;;;6.35;1.67;;;;;;;6.17;62.91;97815.77;2153944;81;29642;-66
2022/04/08 02:45:55;;;;;;;6.12;1.15;;;;;;;6.15;62.73;97808.88;2174196;81;27666;-66
2022/04/08 02:48:57;;;;;;;3.35;1.10;;;;;;;6.15;62.72;97819.52;2175666;81;30765;-66
2022/04/08 02:51:59;;;;;;;3.98;1.37;;;;;;;6.12;62.66;97816.61;2152396;82;31087;-65
2022/04/08 02:55:02;;;;;;;4.47;1.30;;;;;;;6.09;62.54;97820.80;2153278;82;34230;-65
2022/04/08 02:58:05;;;;;;;5.22;2.33;;;;;;;6.10;62.42;97826.48;2175314;81;29365;-66
2022/04/08 03:01:06;;;;;;;4.08;1.52;;;;;;;6.12;62.36;97834.34;2184931;81;27737;-66
2022/04/08 03:04:09;;;;;;;5.53;1.27;;;;;;;6.15;62.43;97832.31;2183589;81;28656;-65
2022/04/08 03:07:11;;;;;;;4.42;1.35;;;;;;;6.19;62.32;97849.74;2138724;82;31963;-66
2022/04/08 03:10:14;;;;;;;7.37;1.37;;;;;;;6.25;62.34;97847.12;2137802;83;34430;-66
2022/04/08 03:13:16;;;;;;;3.55;1.12;;;;;;;6.31;62.19;97841.84;2151421;82;29103;-67
2022/04/08 03:16:18;;;;;;;5.03;1.27;;;;;;;6.38;62.18;97849.76;2167119;82;27655;-66
2022/04/08 03:19:20;;;;;;;3.25;1.32;;;;;;;6.48;61.95;97861.42;2137668;83;28445;-66
2022/04/08 03:22:22;;;;;;;4.47;1.35;;;;;;;6.57;61.87;97859.90;2138430;83;32061;-66
2022/04/08 03:25:23;;;;;;;10.45;2.25;;;;;;;6.68;61.60;97860.45;2137363;83;33581;-66
2022/04/08 03:28:25;;;;;;;4.47;1.82;;;;;;;6.78;61.39;97861.96;2139866;81;29695;-66
2022/04/08 03:31:31;;;;;;;4.62;1.55;;;;;;;6.88;61.16;97858.14;2137666;83;27582;-66
2022/04/08 03:34:33;;;;;;;7.22;1.55;;;;;;;6.97;61.09;97870.75;2137430;83;28716;-65
2022/04/08 03:37:34;;;;;;;3.55;1.50;;;;;;;7.06;60.91;97862.56;2154155;82;32169;-65
2022/04/08 03:40:36;;;;;;;7.53;2.42;;;;;;;7.13;60.71;97876.64;2146412;82;34096;-65
2022/04/08 03:43:38;;;;;;;7.03;1.32;;;;;;;7.21;60.50;97872.56;2138492;83;29325;-65
2022/04/08 03:46:41;;;;;;;7.15;1.50;;;;;;;7.27;59.99;97867.63;2166243;82;27742;-66
2022/04/08 03:49:43;;;;;;;6.05;1.50;;;;;;;7.35;60.02;97874.20;2151099;82;29389;-66
2022/04/08 03:52:45;;;;;;;6.03;2.08;;;;;;;7.40;59.56;97880.87;2136826;83;31377;-66
2022/04/08 03:55:47;;;;;;;4.28;1.30;;;;;;;7.47;59.48;97880.38;2138161;83;34084;-66
2022/04/08 03:58:49;;;;;;;4.45;1.60;;;;;;;7.51;59.20;97884.52;2167682;82;30159;-66
2022/04/08 04:01:51;;;;;;;9.85;1.47;;;;;;;7.55;59.35;97893.48;2170084;82;27589;-65
2022/04/08 04:04:59;;;;;;;5.53;1.67;;;;;;;7.59;59.18;97898.13;2161819;82;29026;-66
2022/04/08 04:07:59;;;;;;;5.30;1.22;;;;;;;7.62;58.99;97908.52;2135302;83;31709;-67
2022/04/08 04:11:00;;;;;;;2.85;0.90;;;;;;;7.66;58.70;97911.82;2136176;83;34112;-65
2022/04/08 04:14:02;;;;;;;5.47;1.40;;;;;;;7.69;58.74;97918.25;2136764;83;29889;-66
2022/04/08 04:17:05;;;;;;;6.97;1.30;;;;;;;7.73;58.60;97931.22;2136329;83;27602;-66
2022/04/08 04:20:10;;;;;;;10.32;1.62;;;;;;;7.76;58.64;97926.13;2136205;83;29510;-66
2022/04/08 04:23:11;;;;;;;8.10;1.72;;;;;;;7.79;58.41;97930.36;2136306;83;30451;-66
2022/04/08 04:26:13;;;;;;;4.97;1.45;;;;;;;7.80;58.27;97932.94;2137323;83;34093;-65
2022/04/08 04:29:15;;;;;;;4.92;1.37;;;;;;;7.84;57.96;97932.20;2135647;83;29335;-66
2022/04/08 04:32:19;;;;;;;6.55;1.87;;;;;;;7.86;58.15;97940.44;2136391;83;28064;-66
2022/04/08 04:35:21;;;;;;;4.05;1.07;;;;;;;7.89;58.04;97949.54;2138534;83;28649;-67
2022/04/08 04:38:23;;;;;;;6.10;1.40;;;;;;;7.92;57.87;97949.81;2137317;82;30821;-66
2022/04/08 04:41:25;;;;;;;10.05;2.15;;;;;;;7.93;57.17;97962.17;2135383;83;32952;-65
2022/04/08 04:44:28;;;;;;;4.60;1.27;;;;;;;7.94;57.44;97967.88;2136390;83;30118;-66
2022/04/08 04:47:30;;;;;;;5.65;1.42;;;;;;;7.98;57.31;97967.98;2136769;83;27721;-66
2022/04/08 04:50:32;;;;;;;7.33;1.90;;;;;;;8.00;57.29;97978.05;2163899;82;29555;-66
2022/04/08 04:53:34;;;;;;;6.65;1.72;;;;;;;8.04;56.91;97977.31;2169783;82;30995;-65
2022/04/08 04:56:35;;;;;;;4.53;1.47;;;;;;;8.06;57.05;97987.39;2163057;82;33748;-65
2022/04/08 04:59:37;;;;;;;7.42;1.55;;;;;;;8.08;56.71;97984.13;2136661;83;29075;-66
2022/04/08 05:02:39;;;;;;;5.55;1.37;;;;;;;8.14;57.13;97996.13;2138425;83;27639;-65
2022/04/08 05:05:41;;;;;;;7.97;1.40;;;;;;;8.18;56.83;98000.27;2158208;81;29875;-67
2022/04/08 05:08:43;;;;;;;9.80;1.98;;;;;;;8.22;56.79;97997.73;2185231;81;32082;-66
2022/04/08 05:11:45;;;;;;;4.40;1.62;;;;;;;8.28;56.83;98003.91;2184027;81;34157;-66
2022/04/08 05:14:46;;;;;;;5.12;1.40;;;;;;;8.33;56.95;98008.91;2153759;82;29987;-66
2022/04/08 05:17:49;;;;;;;3.30;0.90;;;;;;;8.39;56.82;98015.59;2154152;82;27680;-66
2022/04/08 05:20:52;;;;;;;5.47;1.20;;;;;;;8.44;57.00;98027.59;2162554;81;28778;-65
2022/04/08 05:23:53;;;;;;;3.75;1.10;;;;;;;8.49;56.90;98032.13;2185562;81;31977;-66
2022/04/08 05:26:55;;;;;;;5.30;1.10;;;;;;;8.53;56.67;98038.08;2153342;82;34235;-67
2022/04/08 05:30:13;;;;;;;5.70;1.27;;;;;;;8.57;56.55;98042.21;2174442;81;29407;-66
2022/04/08 05:33:16;;;;;;;5.10;1.15;;;;;;;8.62;56.51;98056.02;2171054;81;28143;-67
2022/04/08 05:36:18;;;;;;;6.42;2.20;;;;;;;8.65;56.50;98062.46;2156378;81;29862;-67
2022/04/08 05:39:20;;;;;;;3.92;1.60;;;;;;;8.73;56.59;98062.36;2185562;81;30891;-65
2022/04/08 05:42:22;;;;;;;3.12;1.02;;;;;;;8.84;56.51;98062.36;2183575;81;33037;-66
2022/04/08 05:45:24;;;;;;;3.77;1.45;;;;;;;9.02;56.67;98074.73;2153234;82;29346;-66
2022/04/08 05:48:26;;;;;;;4.97;1.40;;;;;;;9.17;56.32;98074.00;2153873;82;27519;-66
2022/04/08 05:51:29;;;;;;;2.22;1.20;;;;;;;9.28;56.23;98088.68;2153803;82;28827;-67
2022/04/08 05:54:32;;;;;;;3.15;1.15;;;;;;;9.35;56.13;98085.02;2156525;81;31987;-66
2022/04/08 05:57:40;;;;;;;5.45;1.10;;;;;;;9.46;56.15;98098.03;2169855;81;33651;-66
2022/04/08 06:00:40;;;;;;;5.85;1.42;;;;;;;9.54;55.96;98099.11;2178352;81;29333;-65
2022/04/08 06:03:43;;;;;;;6.60;1.40;;;;;;;9.63;55.72;98106.87;2153961;82;27639;-66
2022/04/08 06:06:45;;;;;;;4.30;1.22;;;;;;;9.65;54.97;98117.42;2181793;81;29938;-66
2022/04/08 06:09:47;;;;;;;2.35;1.30;;;;;;;9.69;55.28;98122.89;2164456;81;31418;-65
2022/04/08 06:12:50;;;;;;;3.45;1.90;;;;;;;9.76;54.87;98109.40;2159288;81;33108;-63
2022/04/08 06:15:55;;;;;;;5.28;1.70;;;;;;;9.83;54.89;98125.28;2153492;82;30010;-66
2022/04/08 06:18:57;;;;;;;3.42;1.77;;;;;;;9.95;54.75;98127.92;2153228;82;27784;-65
2022/04/08 06:21:59;;;;;;;5.53;1.70;;;;;;;10.07;54.79;98136.77;2147415;82;29710;-65
2022/04/08 06:25:01;;;;;;;4.05;1.65;;;;;;;10.11;54.66;98144.41;2162119;81;32205;-65
2022/04/08 06:28:06;;;;;;;4.47;1.50;;;;;;;10.14;54.03;98154.02;2185553;81;33453;-65
2022/04/08 06:31:10;;;;;;;5.72;2.00;;;;;;;10.20;54.04;98149.48;2153934;82;30107;-67
2022/04/08 06:34:12;;;;;;;2.72;1.25;;;;;;;10.40;53.98;98161.73;2177125;81;27683;-66
2022/04/08 06:37:14;;;;;;;5.17;1.30;;;;;;;10.62;53.70;98160.77;2171848;81;29843;-66
2022/04/08 06:40:17;;;;;;;5.87;1.35;;;;;;;10.81;53.29;98162.75;2183351;81;31039;-66
2022/04/08 06:43:19;;;;;;;2.77;1.22;;;;;;;10.99;53.48;98176.90;2153373;82;33489;-66
2022/04/08 06:46:22;;;;;;;3.33;1.20;;;;;;;11.14;52.54;98175.58;2164198;81;30609;-65
2022/04/08 06:49:24;;;;;;;5.37;1.32;;;;;;;11.32;51.95;98169.09;2152704;82;27633;-65
2022/04/08 06:52:26;;;;;;;1.92;1.17;;;;;;;11.51;52.15;98179.55;2157437;81;29624;-66
2022/04/08 06:55:30;;;;;;;1.45;1.25;;;;;;;11.61;51.85;98178.25;2181647;81;31033;-66
2022/04/08 06:58:38;;;;;;;3.02;1.20;;;;;;;11.59;51.57;98187.75;2179969;81;33806;-66
2022/04/08 07:01:35;;;;;;;2.70;1.20;;;;;;;11.54;51.34;98181.46;2167928;81;29975;-64
2022/04/08 07:04:38;;;;;;;5.62;1.98;;;;;;;11.53;51.33;98189.14;2159331;81;27686;-64
2022/04/08 07:07:40;;;;;;;2.00;1.00;;;;;;;11.57;51.17;98195.11;2186269;81;29925;-66
2022/04/08 07:10:42;;;;;;;2.80;1.12;;;;;;;11.70;51.23;98197.06;2154016;81;31685;-66
2022/04/08 07:13:44;;;;;;;2.50;1.32;;;;;;;11.75;50.95;98212.74;2171337;81;33593;-67
2022/04/08 07:16:47;;;;;;;4.65;0.95;;;;;;;11.78;50.93;98214.30;2175227;81;30140;-66
2022/04/08 07:19:50;;;;;;;3.67;1.32;;;;;;;11.95;50.85;98219.52;2149457;82;27646;-66
2022/04/08 07:22:53;;;;;;;3.45;1.17;;;;;;;12.02;49.71;98223.38;2149894;82;28748;-66
2022/04/08 07:25:55;;;;;;;3.22;1.12;;;;;;;12.12;49.62;98237.69;2149717;82;31655;-65
2022/04/08 07:29:00;;;;;;;6.17;1.17;;;;;;;12.23;49.95;98229.15;2147065;82;33817;-64
2022/04/08 07:32:03;;;;;;;3.40;1.00;;;;;;;12.22;49.16;98247.11;2148015;82;33655;-66
2022/04/08 07:35:10;;;;;;;3.95;1.37;;;;;;;12.11;48.85;98260.14;2149964;82;27694;-65
2022/04/08 07:38:13;;;;;;;5.08;1.62;;;;;;;11.89;49.18;98258.48;2177233;81;29485;-65
2022/04/08 07:41:16;;;;;;;5.12;1.20;;;;;;;11.73;48.95;98271.04;2165179;81;30451;-65
2022/04/08 07:44:18;;;;;;;6.15;1.27;;;;;;;11.82;48.93;98284.14;2184179;81;32654;-65
2022/04/08 07:47:22;;;;;;;4.22;1.30;;;;;;;12.02;49.00;98287.78;2148241;82;29383;-65
2022/04/08 07:50:27;;;;;;;4.12;1.02;;;;;;;12.23;49.39;98293.58;2147387;82;27720;-65
2022/04/08 07:53:29;;;;;;;2.15;0.82;;;;;;;12.33;48.43;98293.10;2149151;82;28687;-65
2022/04/08 07:56:35;;;;;;;3.55;1.30;;;;;;;12.30;48.62;98300.95;2148822;82;31076;-65
2022/04/08 07:59:36;;;;;;;3.98;1.30;;;;;;;12.26;48.24;98296.00;2149809;82;34070;-65
2022/04/08 08:02:39;;;;;;;3.42;0.95;;;;;;;12.11;48.22;98297.72;2150263;82;29380;-66
2022/04/08 08:05:44;;;;;;;2.00;1.10;;;;;;;11.99;48.20;98299.64;2149739;82;27605;-66
2022/04/08 08:08:47;;;;;;;2.72;1.22;;;;;;;11.96;48.31;98304.41;2148102;82;29528;-66
2022/04/08 08:11:49;;;;;;;2.70;1.15;;;;;;;12.08;48.32;98311.91;2150039;82;30469;-65
2022/04/08 08:14:58;;;;;;;1.62;1.00;;;;;;;12.40;48.02;98304.17;2185205;81;34187;-66
2022/04/08 08:18:03;;;;;;;2.58;1.55;;;;;;;12.80;48.12;98318.52;2170855;81;29350;-65
2022/04/08 08:21:05;;;;;;;3.17;1.60;;;;;;;13.20;47.75;98325.12;2150185;82;27745;-65
2022/04/08 08:24:08;;;;;;;1.85;1.20;;;;;;;13.51;48.11;98311.52;2150846;81;29892;-65
2022/04/08 08:27:10;;;;;;;2.25;1.17;;;;;;;14.12;47.01;98321.45;2186810;81;31897;-66
2022/04/08 08:30:15;;;;;;;2.00;1.10;;;;;;;14.62;45.97;98322.58;2171599;81;33110;-66
2022/04/08 08:33:17;;;;;;;2.60;1.10;;;;;;;14.69;45.45;98332.63;2166049;81;30090;-65
2022/04/08 08:36:19;;;;;;;4.40;1.50;;;;;;;14.62;45.41;98328.80;2166713;81;27606;-65
2022/04/08 08:39:21;;;;;;;1.85;0.90;;;;;;;14.59;44.75;98332.66;2138723;82;29854;-65
2022/04/08 08:42:24;;;;;;;1.30;0.90;;;;;;;14.51;44.82;98362.70;2179372;81;32348;-65
2022/04/08 08:45:32;;;;;;;2.17;1.00;;;;;;;14.32;44.51;98366.30;2170220;81;32966;-65
2022/04/08 08:48:38;;;;;;;3.40;1.40;;;;;;;14.03;44.99;98374.86;2149642;82;30573;-64
2022/04/08 08:51:43;;;;;;;2.17;1.00;;;;;;;13.80;45.65;98368.46;2149798;82;27662;-65
2022/04/08 08:54:47;;;;;;;;;;;;;;;13.72;45.36;98368.83;2186815;81;29877;-65
2022/04/08 08:57:51;;;;;;;2.15;1.07;;;;;;;13.73;46.29;98377.26;2165092;81;31088;-65
2022/04/08 09:00:54;;;;;;;2.85;1.60;;;;;;;13.75;46.36;98385.52;2148561;82;35120;-65
2022/04/08 09:03:56;;;;;;;1.57;1.00;;;;;;;13.71;46.61;98387.31;2149612;82;28381;-65
2022/04/08 09:06:59;;;;;;;4.87;1.42;;;;;;;13.64;46.65;98400.49;2147912;82;27622;-65
2022/04/08 09:10:02;;;;;;;5.15;1.98;;;;;;;13.52;46.45;98420.83;2161671;81;28652;-65
2022/04/08 09:13:12;;;;;;;3.22;1.55;;;;;;;13.30;47.07;98425.95;2158844;82;31716;-65
2022/04/08 09:16:12;;;;;;;6.45;1.75;;;;;;;12.97;47.90;98445.98;2139326;82;33074;-65
2022/04/08 09:19:14;;;;;;;3.35;1.65;;;;;;;12.65;48.38;98453.72;2169714;82;30175;-64
2022/04/08 09:22:18;;;;;;;2.85;1.32;;;;;;;12.51;49.03;98445.53;2145951;82;27683;-64
2022/04/08 09:25:22;;;;;;;2.15;1.20;;;;;;;12.35;49.08;98451.41;2151933;82;29471;-64
2022/04/08 09:28:24;;;;;;;5.07;1.87;;;;;;;12.19;49.22;98444.68;2169217;81;33253;-65
2022/04/08 09:31:26;;;;;;;2.08;1.12;;;;;;;12.28;49.94;98449.75;2136551;83;33638;-65
2022/04/08 09:34:29;;;;;;;2.12;1.00;;;;;;;12.56;50.24;98448.19;2137688;83;30161;-66
2022/04/08 09:37:31;;;;;;;2.90;1.15;;;;;;;12.94;50.07;98446.25;2120329;83;28686;-65
2022/04/08 09:40:39;;;;;;;2.90;1.30;;;;;;;13.27;49.22;98450.91;2119945;82;28682;-66
2022/04/08 09:43:45;;;;;;;3.75;1.50;;;;;;;13.47;48.86;98452.67;2170068;82;31220;-65
2022/04/08 09:46:48;;;;;;;2.90;1.35;;;;;;;13.63;48.41;98455.30;2140554;82;33054;-66
2022/04/08 09:49:50;;;;;;;1.40;1.02;;;;;;;13.79;48.42;98458.78;2154244;82;29971;-66
2022/04/08 09:52:53;;;;;;;2.42;0.98;;;;;;;13.94;47.80;98449.75;2147206;82;27666;-66
2022/04/08 09:55:56;;;;;;;2.37;1.15;;;;;;;14.08;47.34;98445.26;2169974;82;29494;-66
2022/04/08 09:59:12;;;;;;;2.08;1.20;;;;;;;14.14;47.30;98450.59;2169045;82;30329;-65
2022/04/08 10:02:16;;;;;;;2.47;1.20;;;;;;;14.24;46.88;98443.80;2143084;81;33800;-64
2022/04/08 10:05:20;;;;;;;3.02;1.15;;;;;;;14.40;46.63;98449.94;2138082;83;29960;-65
2022/04/08 10:08:22;;;;;;;2.22;1.42;;;;;;;14.48;45.99;98446.52;2141452;82;27715;-65
2022/04/08 10:11:45;;;;;;;2.58;1.32;;;;;;;14.56;46.28;98454.72;2148693;82;29314;-66
2022/04/08 10:15:10;;;;;;;9.85;4.87;;;;;;;14.56;45.71;98464.16;2149942;82;31055;-65
2022/04/08 10:18:12;;;;;;;4.08;1.92;;;;;;;14.50;45.57;98457.48;2149256;82;34024;-65
2022/04/08 10:21:15;;;;;;;1.87;1.12;;;;;;;14.50;45.46;98463.38;2164993;81;30511;-66
2022/04/08 10:24:26;;;;;;;3.60;1.60;;;;;;;14.68;45.39;98462.13;2186451;81;28218;-66
2022/04/08 10:27:38;;;;;;;5.90;1.60;;;;;;;14.94;45.30;98458.25;2158991;81;29310;-66
2022/04/08 10:30:47;;;;;;;2.08;1.22;;;;;;;15.45;44.71;98449.22;2147926;82;31013;-65
2022/04/08 10:33:54;;;;;;;3.17;0.90;;;;;;;15.45;44.71;98449.22;2148927;82;33101;-66
2022/04/08 10:36:56;;;;;;;2.02;1.40;;;;;;;15.38;43.47;98451.33;2149630;82;29683;-65
2022/04/08 10:40:04;;;;;;;2.55;1.47;;;;;;;15.26;43.68;98445.30;2148780;82;27554;-66
2022/04/08 10:43:09;;;;;;;1.90;1.00;;;;;;;15.22;43.26;98442.55;2148043;82;28501;-66
2022/04/08 10:46:10;;;;;;;3.92;0.95;;;;;;;15.13;42.97;98442.48;2148699;82;32048;-65
2022/04/08 10:49:12;;;;;;;2.42;0.80;;;;;;;15.27;43.65;98449.19;2146884;82;33855;-65
2022/04/08 10:52:30;;;;;;;1.10;0.88;;;;;;;15.49;43.60;98439.79;2147711;82;30477;-64
2022/04/08 10:55:34;;;;;;;4.42;1.40;;;;;;;15.59;43.40;98438.88;2147596;82;27629;-64
2022/04/08 10:58:46;;;;;;;2.23;1.10;;;;;;;15.74;43.42;98445.43;2147694;82;29451;-65
2022/04/08 11:01:48;;;;;;;1.40;0.95;;;;;;;15.70;42.20;98431.89;2149021;81;30981;-65
2022/04/08 11:04:50;;;;;;;3.47;1.02;;;;;;;15.49;41.82;98442.48;2159508;81;35055;-65
2022/04/08 11:07:53;;;;;;;6.62;4.17;;;;;;;15.31;41.85;98445.67;2160691;81;30497;-65
2022/04/08 11:11:01;;;;;;;2.60;2.10;;;;;;;15.12;42.17;98454.27;2154650;81;28539;-64
2022/04/08 11:14:04;;;;;;;2.45;1.20;;;;;;;14.85;41.78;98433.55;2152497;82;29943;-65
2022/04/08 11:17:06;;;;;;;2.08;1.40;;;;;;;14.85;41.78;98433.55;2152873;82;31660;-66
2022/04/08 11:20:16;;;;;;;3.05;1.15;;;;;;;14.88;41.54;98428.70;2155800;81;34182;-66
2022/04/08 11:23:32;;;;;;;2.95;1.40;;;;;;;14.74;40.90;98452.95;2186041;81;29271;-66
2022/04/08 11:26:53;;;;;;;2.58;1.25;;;;;;;14.51;40.95;98446.22;2154394;81;27699;-67
2022/04/08 11:29:54;;;;;;;2.70;1.55;;;;;;;14.39;41.26;98451.80;2117279;84;28632;-67
2022/04/08 11:32:57;;;;;;;1.55;1.17;;;;;;;14.26;41.19;98441.34;2116134;84;31594;-67
2022/04/08 11:36:03;;;;;;;2.55;1.00;;;;;;;14.20;40.99;98457.23;2115340;84;33108;-66
2022/04/08 11:39:04;;;;;;;1.15;0.80;;;;;;;14.19;41.31;98428.09;2083937;85;29334;-66
2022/04/08 11:42:07;;;;;;;1.40;1.17;;;;;;;14.26;41.61;98437.30;2105404;84;27824;-66
2022/04/08 11:45:10;;;;;;;2.47;1.40;;;;;;;14.34;41.21;98432.52;2117401;82;28802;-66
2022/04/08 11:48:16;;;;;;;1.65;1.50;;;;;;;14.34;41.04;98437.05;2115151;84;31057;-65
2022/04/08 11:51:23;;;;;;;2.50;1.25;;;;;;;14.29;40.88;98437.49;2114941;84;34065;-65
2022/04/08 11:54:24;;;;;;;1.70;1.10;;;;;;;14.25;40.80;98434.25;2117067;84;30277;-65
2022/04/08 11:57:29;;;;;;;1.80;0.95;;;;;;;14.33;40.47;98424.09;2117294;84;27778;-65
2022/04/08 12:00:31;;;;;;;2.58;1.20;;;;;;;14.36;39.95;98431.88;2116721;84;29659;-65
2022/04/08 12:03:33;;;;;;;3.70;1.32;;;;;;;14.46;39.87;98436.38;2116085;84;32255;-66
2022/04/08 12:06:48;;;;;;;1.30;0.80;;;;;;;14.55;39.53;98434.16;2113659;84;32964;-66
2022/04/08 12:09:54;;;;;;;1.32;0.80;;;;;;;14.66;39.64;98431.75;2132625;82;29343;-66
2022/04/08 12:12:56;;;;;;;2.83;0.90;;;;;;;14.79;39.10;98427.40;2136982;82;27678;-67
2022/04/08 12:15:58;;;;;;;7.37;3.10;;;;;;;14.93;39.46;98419.31;2111242;84;29476;-66
2022/04/08 12:19:02;;;;;;;6.40;2.30;;;;;;;15.04;38.99;98431.23;2122645;82;31933;-65
2022/04/08 12:22:13;;;;;;;4.28;2.40;;;;;;;15.14;37.80;98415.83;2135832;82;32973;-65
2022/04/08 12:25:17;;;;;;;3.22;2.25;;;;;;;15.22;39.04;98418.28;2132052;82;30539;-67
2022/04/08 12:28:23;;;;;;;1.75;0.98;;;;;;;15.40;38.42;98407.00;2110760;84;27670;-66
2022/04/08 12:31:25;;;;;;;3.30;1.85;;;;;;;15.56;38.73;98408.15;2111627;82;29605;-66
2022/04/08 12:34:27;;;;;;;2.45;1.07;;;;;;;15.70;38.35;98406.76;2111352;84;31045;-67
2022/04/08 12:37:29;;;;;;;1.20;0.70;;;;;;;15.77;38.26;98403.77;2128787;82;32938;-66
2022/04/08 12:40:32;;;;;;;2.62;1.40;;;;;;;15.82;37.63;98399.23;2144220;82;29330;-66
2022/04/08 12:43:34;;;;;;;0.80;0.80;;;;;;;15.89;37.47;98400.34;2147187;82;27708;-66
2022/04/08 12:46:37;;;;;;;3.85;2.45;;;;;;;16.01;37.63;98396.38;2147345;82;29905;-67
2022/04/08 12:49:39;;;;;;;12.30;8.50;;;;;;;16.26;37.67;98380.33;2147827;82;31087;-66
2022/04/08 12:52:41;;;;;;;1.90;1.05;;;;;;;16.26;37.67;98380.33;2139075;82;32962;-67
2022/04/08 12:55:43;;;;;;;2.02;1.50;;;;;;;16.39;35.97;98385.27;2127618;82;29325;-67
2022/04/08 12:58:45;;;;;;;1.17;0.93;;;;;;;16.35;36.76;98377.17;2144188;82;27786;-67
2022/04/08 13:01:46;;;;;;;3.45;2.95;;;;;;;16.36;36.22;98383.75;2146780;82;29703;-67
2022/04/08 13:04:51;;;;;;;8.18;7.05;;;;;;;16.44;36.28;98377.55;2147657;82;32030;-64
2022/04/08 13:07:53;;;;;;;10.82;8.35;;;;;;;16.42;35.72;98374.67;2147774;82;33041;-64
2022/04/08 13:10:55;;;;;;;5.25;3.45;;;;;;;16.39;35.50;98372.63;2185531;81;29657;-64
2022/04/08 13:13:58;;;;;;;1.92;1.20;;;;;;;16.39;35.28;98374.47;2187029;81;27622;-65
2022/04/08 13:17:00;;;;;;;2.50;1.17;;;;;;;16.36;35.16;98368.06;2173093;81;29625;-65
2022/04/08 13:20:03;;;;;;;2.67;0.95;;;;;;;16.40;35.46;98356.75;2142516;83;32082;-65
2022/04/08 13:23:05;;;;;;;2.15;1.30;;;;;;;16.47;35.60;98353.39;2142614;83;33373;-66
2022/04/08 13:26:07;;;;;;;2.10;1.52;;;;;;;16.52;34.70;98351.92;2143972;82;30102;-65
2022/04/08 13:29:10;;;;;;;4.42;2.60;;;;;;;16.50;35.22;98347.17;2148448;82;27764;-64
2022/04/08 13:32:12;;;;;;;2.00;1.12;;;;;;;16.54;35.00;98344.50;2150995;81;29096;-64
2022/04/08 13:35:14;;;;;;;3.02;2.00;;;;;;;16.55;34.82;98343.98;2186939;81;31454;-64
2022/04/08 13:38:16;;;;;;;2.02;1.30;;;;;;;16.61;35.00;98331.66;2159911;81;33656;-64
2022/04/08 13:41:18;;;;;;;2.87;1.15;;;;;;;16.62;34.65;98319.34;2166017;81;29856;-63
2022/04/08 13:44:21;;;;;;;2.15;1.00;;;;;;;16.60;34.85;98313.25;2167682;81;27815;-65
2022/04/08 13:47:22;;;;;;;3.17;1.30;;;;;;;16.65;34.90;98311.40;2182456;81;29820;-64
2022/04/08 13:50:25;;;;;;;3.55;1.35;;;;;;;16.67;34.72;98300.75;2166879;81;32149;-64
2022/04/08 13:53:28;;;;;;;3.42;1.10;;;;;;;16.66;34.42;98291.47;2170766;82;32993;-64
2022/04/08 13:56:31;;;;;;;3.55;0.85;;;;;;;16.61;34.19;98287.91;2166467;82;29525;-64
2022/04/08 13:59:34;;;;;;;1.53;1.10;;;;;;;16.58;34.01;98284.67;2149307;82;27711;-63
2022/04/08 14:02:40;;;;;;;2.90;1.50;;;;;;;16.54;34.07;98286.37;2180418;81;27738;-64
2022/04/08 14:05:44;;;;;;;2.50;1.47;;;;;;;16.53;34.45;98290.09;2166156;81;31076;-64
2022/04/08 14:08:47;;;;;;;1.32;1.20;;;;;;;16.52;34.33;98287.53;2156559;81;33330;-64
2022/04/08 14:11:50;;;;;;;2.20;1.30;;;;;;;16.49;34.52;98284.66;2169508;82;30318;-64
2022/04/08 14:14:53;;;;;;;3.20;1.60;;;;;;;16.43;34.25;98281.25;2147781;82;28015;-63
2022/04/08 14:17:55;;;;;;;2.02;1.07;;;;;;;16.35;34.04;98295.59;2170026;81;28256;-64
2022/04/08 14:20:57;;;;;;;1.72;1.10;;;;;;;16.20;33.76;98292.67;2159943;82;32293;-64
2022/04/08 14:24:00;;;;;;;4.15;1.75;;;;;;;16.07;33.66;98291.76;2137299;83;34198;-64
2022/04/08 14:27:02;;;;;;;2.40;1.37;;;;;;;16.01;33.83;98303.71;2137618;83;29837;-63